sensor_id;sensor_type;location;lat;lon;timestamp;P1;durP1;ratioP1;P2;durP2;ratioP2
32321;SDS011;61553;48.994;8.940;2023-07-29T00:01:50;5.68;;;3.17;;
32321;SDS011;61553;48.994;8.940;2023-07-29T00:04:17;6.15;;;2.83;;
32321;SDS011;61553;48.994;8.940;2023-07-29T00:06:42;8.13;;;3.45;;
32321;SDS011;61553;48.994;8.940;2023-07-29T00:09:08;6.75;;;3.22;;
32321;SDS011;61553;48.994;8.940;2023-07-29T00:11:34;8.43;;;3.65;;
32321;SDS011;61553;48.994;8.940;2023-07-29T00:14:00;6.05;;;3.13;;
32321;SDS011;61553;48.994;8.940;2023-07-29T00:16:26;10.77;;;3.22;;
32321;SDS011;61553;48.994;8.940;2023-07-29T00:18:52;5.03;;;2.90;;
32321;SDS011;61553;48.994;8.940;2023-07-29T00:21:17;8.32;;;3.15;;
32321;SDS011;61553;48.994;8.940;2023-07-29T00:23:43;8.23;;;3.30;;
32321;SDS011;61553;48.994;8.940;2023-07-29T00:26:09;7.60;;;3.10;;
32321;SDS011;61553;48.994;8.940;2023-07-29T00:28:34;6.03;;;3.20;;
32321;SDS011;61553;48.994;8.940;2023-07-29T00:31:00;7.45;;;3.50;;
32321;SDS011;61553;48.994;8.940;2023-07-29T00:33:26;8.07;;;3.33;;
32321;SDS011;61553;48.994;8.940;2023-07-29T00:35:52;6.65;;;3.58;;
32321;SDS011;61553;48.994;8.940;2023-07-29T00:38:17;8.80;;;3.42;;
32321;SDS011;61553;48.994;8.940;2023-07-29T00:40:43;6.75;;;3.50;;
32321;SDS011;61553;48.994;8.940;2023-07-29T00:43:09;4.70;;;3.10;;
32321;SDS011;61553;48.994;8.940;2023-07-29T00:45:34;6.88;;;3.42;;
32321;SDS011;61553;48.994;8.940;2023-07-29T00:48:01;8.25;;;3.53;;
32321;SDS011;61553;48.994;8.940;2023-07-29T00:50:28;7.32;;;3.38;;
32321;SDS011;61553;48.994;8.940;2023-07-29T00:52:55;8.98;;;3.50;;
32321;SDS011;61553;48.994;8.940;2023-07-29T00:55:21;7.22;;;3.65;;
32321;SDS011;61553;48.994;8.940;2023-07-29T00:57:48;7.97;;;3.00;;
32321;SDS011;61553;48.994;8.940;2023-07-29T01:00:16;9.30;;;3.42;;
32321;SDS011;61553;48.994;8.940;2023-07-29T01:02:42;5.03;;;2.75;;
32321;SDS011;61553;48.994;8.940;2023-07-29T01:05:08;4.72;;;2.60;;
32321;SDS011;61553;48.994;8.940;2023-07-29T01:07:44;11.38;;;2.90;;
32321;SDS011;61553;48.994;8.940;2023-07-29T01:10:43;6.85;;;2.70;;
32321;SDS011;61553;48.994;8.940;2023-07-29T01:13:19;7.80;;;2.90;;
32321;SDS011;61553;48.994;8.940;2023-07-29T01:16:04;4.50;;;2.80;;
32321;SDS011;61553;48.994;8.940;2023-07-29T01:18:36;7.93;;;3.40;;
32321;SDS011;61553;48.994;8.940;2023-07-29T01:21:07;10.20;;;3.67;;
32321;SDS011;61553;48.994;8.940;2023-07-29T01:23:33;6.43;;;3.53;;
32321;SDS011;61553;48.994;8.940;2023-07-29T01:26:00;6.38;;;3.45;;
32321;SDS011;61553;48.994;8.940;2023-07-29T01:28:27;7.95;;;3.55;;
32321;SDS011;61553;48.994;8.940;2023-07-29T01:31:54;7.38;;;2.90;;
32321;SDS011;61553;48.994;8.940;2023-07-29T01:34:17;7.93;;;3.30;;
32321;SDS011;61553;48.994;8.940;2023-07-29T01:36:45;8.07;;;4.13;;
32321;SDS011;61553;48.994;8.940;2023-07-29T01:39:13;7.75;;;3.90;;
32321;SDS011;61553;48.994;8.940;2023-07-29T01:41:39;5.80;;;3.53;;
32321;SDS011;61553;48.994;8.940;2023-07-29T01:44:06;5.95;;;2.88;;
32321;SDS011;61553;48.994;8.940;2023-07-29T01:46:33;8.43;;;3.53;;
32321;SDS011;61553;48.994;8.940;2023-07-29T01:48:59;6.95;;;3.55;;
32321;SDS011;61553;48.994;8.940;2023-07-29T01:51:25;6.18;;;3.35;;
32321;SDS011;61553;48.994;8.940;2023-07-29T01:53:50;8.30;;;3.28;;
32321;SDS011;61553;48.994;8.940;2023-07-29T01:56:16;4.78;;;3.15;;
32321;SDS011;61553;48.994;8.940;2023-07-29T01:58:41;6.00;;;3.35;;
32321;SDS011;61553;48.994;8.940;2023-07-29T02:01:07;6.32;;;3.30;;
32321;SDS011;61553;48.994;8.940;2023-07-29T02:03:33;6.10;;;3.25;;
32321;SDS011;61553;48.994;8.940;2023-07-29T02:05:58;9.27;;;3.78;;
32321;SDS011;61553;48.994;8.940;2023-07-29T02:08:24;5.55;;;3.38;;
32321;SDS011;61553;48.994;8.940;2023-07-29T02:10:49;6.28;;;3.25;;
32321;SDS011;61553;48.994;8.940;2023-07-29T02:13:15;7.72;;;4.00;;
32321;SDS011;61553;48.994;8.940;2023-07-29T02:15:41;6.70;;;4.07;;
32321;SDS011;61553;48.994;8.940;2023-07-29T02:18:06;6.63;;;3.22;;
32321;SDS011;61553;48.994;8.940;2023-07-29T02:20:32;9.60;;;3.70;;
32321;SDS011;61553;48.994;8.940;2023-07-29T02:22:58;10.88;;;4.15;;
32321;SDS011;61553;48.994;8.940;2023-07-29T02:25:24;9.02;;;4.00;;
32321;SDS011;61553;48.994;8.940;2023-07-29T02:27:49;6.60;;;3.92;;
32321;SDS011;61553;48.994;8.940;2023-07-29T02:30:15;8.40;;;3.75;;
32321;SDS011;61553;48.994;8.940;2023-07-29T02:32:40;5.63;;;3.53;;
32321;SDS011;61553;48.994;8.940;2023-07-29T02:35:06;7.10;;;3.17;;
32321;SDS011;61553;48.994;8.940;2023-07-29T02:37:32;7.00;;;3.70;;
32321;SDS011;61553;48.994;8.940;2023-07-29T02:39:58;8.05;;;3.28;;
32321;SDS011;61553;48.994;8.940;2023-07-29T02:42:23;7.95;;;3.80;;
32321;SDS011;61553;48.994;8.940;2023-07-29T02:44:49;7.85;;;4.00;;
32321;SDS011;61553;48.994;8.940;2023-07-29T02:47:14;10.77;;;4.28;;
32321;SDS011;61553;48.994;8.940;2023-07-29T02:49:40;5.90;;;3.47;;
32321;SDS011;61553;48.994;8.940;2023-07-29T02:52:06;9.40;;;4.15;;
32321;SDS011;61553;48.994;8.940;2023-07-29T02:54:31;7.50;;;3.45;;
32321;SDS011;61553;48.994;8.940;2023-07-29T02:56:57;6.68;;;2.83;;
32321;SDS011;61553;48.994;8.940;2023-07-29T02:59:23;4.43;;;3.03;;
32321;SDS011;61553;48.994;8.940;2023-07-29T03:01:48;5.30;;;2.72;;
32321;SDS011;61553;48.994;8.940;2023-07-29T03:04:14;5.50;;;3.13;;
32321;SDS011;61553;48.994;8.940;2023-07-29T03:06:40;7.13;;;3.50;;
32321;SDS011;61553;48.994;8.940;2023-07-29T03:09:05;8.68;;;3.55;;
32321;SDS011;61553;48.994;8.940;2023-07-29T03:11:31;8.30;;;3.17;;
32321;SDS011;61553;48.994;8.940;2023-07-29T03:13:56;8.20;;;3.72;;
32321;SDS011;61553;48.994;8.940;2023-07-29T03:16:22;7.47;;;4.03;;
32321;SDS011;61553;48.994;8.940;2023-07-29T03:18:48;7.57;;;3.65;;
32321;SDS011;61553;48.994;8.940;2023-07-29T03:21:14;7.32;;;3.75;;
32321;SDS011;61553;48.994;8.940;2023-07-29T03:23:40;8.57;;;3.83;;
32321;SDS011;61553;48.994;8.940;2023-07-29T03:26:06;5.28;;;3.33;;
32321;SDS011;61553;48.994;8.940;2023-07-29T03:28:36;8.52;;;3.60;;
32321;SDS011;61553;48.994;8.940;2023-07-29T03:31:03;6.43;;;3.70;;
32321;SDS011;61553;48.994;8.940;2023-07-29T03:33:29;6.25;;;3.90;;
32321;SDS011;61553;48.994;8.940;2023-07-29T03:35:54;6.88;;;3.47;;
32321;SDS011;61553;48.994;8.940;2023-07-29T03:38:20;5.63;;;3.17;;
32321;SDS011;61553;48.994;8.940;2023-07-29T03:40:46;6.68;;;3.85;;
32321;SDS011;61553;48.994;8.940;2023-07-29T03:43:12;8.05;;;3.63;;
32321;SDS011;61553;48.994;8.940;2023-07-29T03:45:38;6.55;;;3.72;;
32321;SDS011;61553;48.994;8.940;2023-07-29T03:48:04;6.60;;;3.67;;
32321;SDS011;61553;48.994;8.940;2023-07-29T03:50:33;7.57;;;3.78;;
32321;SDS011;61553;48.994;8.940;2023-07-29T03:53:03;8.18;;;3.90;;
32321;SDS011;61553;48.994;8.940;2023-07-29T03:55:29;7.43;;;3.22;;
32321;SDS011;61553;48.994;8.940;2023-07-29T03:57:56;7.95;;;4.05;;
32321;SDS011;61553;48.994;8.940;2023-07-29T04:00:22;7.20;;;3.72;;
32321;SDS011;61553;48.994;8.940;2023-07-29T04:02:48;7.20;;;3.30;;
32321;SDS011;61553;48.994;8.940;2023-07-29T04:05:14;4.57;;;2.92;;
32321;SDS011;61553;48.994;8.940;2023-07-29T04:07:39;6.13;;;3.03;;
32321;SDS011;61553;48.994;8.940;2023-07-29T04:10:05;8.77;;;3.08;;
32321;SDS011;61553;48.994;8.940;2023-07-29T04:12:32;6.03;;;3.30;;
32321;SDS011;61553;48.994;8.940;2023-07-29T04:14:57;6.10;;;3.17;;
32321;SDS011;61553;48.994;8.940;2023-07-29T04:17:23;5.13;;;3.15;;
32321;SDS011;61553;48.994;8.940;2023-07-29T04:19:49;4.78;;;3.08;;
32321;SDS011;61553;48.994;8.940;2023-07-29T04:22:15;7.75;;;3.50;;
32321;SDS011;61553;48.994;8.940;2023-07-29T04:24:41;6.28;;;4.07;;
32321;SDS011;61553;48.994;8.940;2023-07-29T04:27:06;6.70;;;3.33;;
32321;SDS011;61553;48.994;8.940;2023-07-29T04:29:32;5.88;;;3.05;;
32321;SDS011;61553;48.994;8.940;2023-07-29T04:31:58;6.32;;;3.35;;
32321;SDS011;61553;48.994;8.940;2023-07-29T04:34:23;7.10;;;3.28;;
32321;SDS011;61553;48.994;8.940;2023-07-29T04:36:49;9.40;;;3.75;;
32321;SDS011;61553;48.994;8.940;2023-07-29T04:39:15;11.32;;;3.70;;
32321;SDS011;61553;48.994;8.940;2023-07-29T04:41:40;7.20;;;2.88;;
32321;SDS011;61553;48.994;8.940;2023-07-29T04:44:06;9.48;;;3.45;;
32321;SDS011;61553;48.994;8.940;2023-07-29T04:46:32;6.60;;;2.70;;
32321;SDS011;61553;48.994;8.940;2023-07-29T04:48:58;5.78;;;3.17;;
32321;SDS011;61553;48.994;8.940;2023-07-29T04:51:24;4.75;;;2.80;;
32321;SDS011;61553;48.994;8.940;2023-07-29T04:53:50;5.72;;;3.40;;
32321;SDS011;61553;48.994;8.940;2023-07-29T04:56:15;4.68;;;2.50;;
32321;SDS011;61553;48.994;8.940;2023-07-29T04:58:41;4.43;;;2.28;;
32321;SDS011;61553;48.994;8.940;2023-07-29T05:01:06;4.57;;;2.03;;
32321;SDS011;61553;48.994;8.940;2023-07-29T05:03:32;5.43;;;2.15;;
32321;SDS011;61553;48.994;8.940;2023-07-29T05:05:58;4.43;;;2.15;;
32321;SDS011;61553;48.994;8.940;2023-07-29T05:08:25;4.25;;;2.28;;
32321;SDS011;61553;48.994;8.940;2023-07-29T05:10:51;5.35;;;2.65;;
32321;SDS011;61553;48.994;8.940;2023-07-29T05:13:17;5.07;;;2.40;;
32321;SDS011;61553;48.994;8.940;2023-07-29T05:15:44;5.40;;;2.10;;
32321;SDS011;61553;48.994;8.940;2023-07-29T05:18:10;7.90;;;2.65;;
32321;SDS011;61553;48.994;8.940;2023-07-29T05:20:36;5.25;;;2.60;;
32321;SDS011;61553;48.994;8.940;2023-07-29T05:23:02;4.15;;;2.40;;
32321;SDS011;61553;48.994;8.940;2023-07-29T05:25:28;6.80;;;2.20;;
32321;SDS011;61553;48.994;8.940;2023-07-29T05:27:54;7.68;;;2.55;;
32321;SDS011;61553;48.994;8.940;2023-07-29T05:30:19;4.03;;;2.20;;
32321;SDS011;61553;48.994;8.940;2023-07-29T05:32:45;8.38;;;2.35;;
32321;SDS011;61553;48.994;8.940;2023-07-29T05:35:11;5.25;;;1.98;;
32321;SDS011;61553;48.994;8.940;2023-07-29T05:37:37;5.13;;;2.50;;
32321;SDS011;61553;48.994;8.940;2023-07-29T05:40:05;6.00;;;1.65;;
32321;SDS011;61553;48.994;8.940;2023-07-29T05:42:32;5.82;;;2.05;;
32321;SDS011;61553;48.994;8.940;2023-07-29T05:44:58;4.22;;;1.73;;
32321;SDS011;61553;48.994;8.940;2023-07-29T05:47:23;6.97;;;1.70;;
32321;SDS011;61553;48.994;8.940;2023-07-29T05:49:49;4.60;;;1.92;;
32321;SDS011;61553;48.994;8.940;2023-07-29T05:52:15;3.72;;;1.58;;
32321;SDS011;61553;48.994;8.940;2023-07-29T05:54:40;3.63;;;2.08;;
32321;SDS011;61553;48.994;8.940;2023-07-29T05:57:08;4.00;;;1.80;;
32321;SDS011;61553;48.994;8.940;2023-07-29T05:59:34;4.55;;;1.98;;
32321;SDS011;61553;48.994;8.940;2023-07-29T06:02:00;5.53;;;1.90;;
32321;SDS011;61553;48.994;8.940;2023-07-29T06:04:26;4.97;;;1.60;;
32321;SDS011;61553;48.994;8.940;2023-07-29T06:06:52;5.07;;;1.50;;
32321;SDS011;61553;48.994;8.940;2023-07-29T06:09:17;4.13;;;1.65;;
32321;SDS011;61553;48.994;8.940;2023-07-29T06:11:43;4.38;;;1.63;;
32321;SDS011;61553;48.994;8.940;2023-07-29T06:14:08;2.97;;;1.60;;
32321;SDS011;61553;48.994;8.940;2023-07-29T06:16:34;5.35;;;1.73;;
32321;SDS011;61553;48.994;8.940;2023-07-29T06:19:00;4.38;;;2.00;;
32321;SDS011;61553;48.994;8.940;2023-07-29T06:21:26;5.15;;;1.73;;
32321;SDS011;61553;48.994;8.940;2023-07-29T06:23:51;8.57;;;1.95;;
32321;SDS011;61553;48.994;8.940;2023-07-29T06:26:17;5.35;;;1.80;;
32321;SDS011;61553;48.994;8.940;2023-07-29T06:28:43;5.80;;;1.58;;
32321;SDS011;61553;48.994;8.940;2023-07-29T06:31:08;4.90;;;1.50;;
32321;SDS011;61553;48.994;8.940;2023-07-29T06:33:34;7.40;;;1.95;;
32321;SDS011;61553;48.994;8.940;2023-07-29T06:36:00;4.72;;;1.80;;
32321;SDS011;61553;48.994;8.940;2023-07-29T06:38:25;4.15;;;1.70;;
32321;SDS011;61553;48.994;8.940;2023-07-29T06:40:51;7.40;;;1.92;;
32321;SDS011;61553;48.994;8.940;2023-07-29T06:43:17;4.75;;;1.55;;
32321;SDS011;61553;48.994;8.940;2023-07-29T06:45:43;4.35;;;1.92;;
32321;SDS011;61553;48.994;8.940;2023-07-29T06:48:08;9.70;;;2.10;;
32321;SDS011;61553;48.994;8.940;2023-07-29T06:50:34;5.55;;;2.45;;
32321;SDS011;61553;48.994;8.940;2023-07-29T06:53:00;4.97;;;1.65;;
32321;SDS011;61553;48.994;8.940;2023-07-29T06:55:25;3.78;;;1.88;;
32321;SDS011;61553;48.994;8.940;2023-07-29T06:57:51;5.25;;;1.73;;
32321;SDS011;61553;48.994;8.940;2023-07-29T07:00:17;6.53;;;2.03;;
32321;SDS011;61553;48.994;8.940;2023-07-29T07:02:42;6.22;;;1.88;;
32321;SDS011;61553;48.994;8.940;2023-07-29T07:05:08;4.07;;;1.60;;
32321;SDS011;61553;48.994;8.940;2023-07-29T07:07:34;6.70;;;1.58;;
32321;SDS011;61553;48.994;8.940;2023-07-29T07:10:00;4.85;;;1.50;;
32321;SDS011;61553;48.994;8.940;2023-07-29T07:12:25;4.47;;;1.80;;
32321;SDS011;61553;48.994;8.940;2023-07-29T07:14:51;3.30;;;1.45;;
32321;SDS011;61553;48.994;8.940;2023-07-29T07:17:17;3.22;;;1.58;;
32321;SDS011;61553;48.994;8.940;2023-07-29T07:19:43;3.20;;;1.60;;
32321;SDS011;61553;48.994;8.940;2023-07-29T07:22:08;2.70;;;1.50;;
32321;SDS011;61553;48.994;8.940;2023-07-29T07:24:34;4.10;;;1.58;;
32321;SDS011;61553;48.994;8.940;2023-07-29T07:27:00;2.42;;;1.35;;
32321;SDS011;61553;48.994;8.940;2023-07-29T07:29:26;4.97;;;1.55;;
32321;SDS011;61553;48.994;8.940;2023-07-29T07:31:52;4.00;;;1.55;;
32321;SDS011;61553;48.994;8.940;2023-07-29T07:34:19;5.00;;;1.63;;
32321;SDS011;61553;48.994;8.940;2023-07-29T07:36:46;3.80;;;1.60;;
32321;SDS011;61553;48.994;8.940;2023-07-29T07:39:12;4.40;;;1.40;;
32321;SDS011;61553;48.994;8.940;2023-07-29T07:41:38;2.90;;;1.30;;
32321;SDS011;61553;48.994;8.940;2023-07-29T07:44:03;3.42;;;1.33;;
32321;SDS011;61553;48.994;8.940;2023-07-29T07:46:29;4.30;;;1.63;;
32321;SDS011;61553;48.994;8.940;2023-07-29T07:48:55;3.10;;;1.40;;
32321;SDS011;61553;48.994;8.940;2023-07-29T07:51:20;2.80;;;1.05;;
32321;SDS011;61553;48.994;8.940;2023-07-29T07:53:46;2.67;;;1.35;;
32321;SDS011;61553;48.994;8.940;2023-07-29T07:56:12;3.78;;;1.58;;
32321;SDS011;61553;48.994;8.940;2023-07-29T07:58:37;2.30;;;1.08;;
32321;SDS011;61553;48.994;8.940;2023-07-29T08:01:04;3.20;;;1.30;;
32321;SDS011;61553;48.994;8.940;2023-07-29T08:03:30;2.72;;;1.30;;
32321;SDS011;61553;48.994;8.940;2023-07-29T08:05:55;3.03;;;1.58;;
32321;SDS011;61553;48.994;8.940;2023-07-29T08:08:21;6.07;;;1.33;;
32321;SDS011;61553;48.994;8.940;2023-07-29T08:10:47;3.47;;;1.00;;
32321;SDS011;61553;48.994;8.940;2023-07-29T08:13:12;3.30;;;1.20;;
32321;SDS011;61553;48.994;8.940;2023-07-29T08:15:38;3.17;;;1.10;;
32321;SDS011;61553;48.994;8.940;2023-07-29T08:18:04;1.77;;;0.88;;
32321;SDS011;61553;48.994;8.940;2023-07-29T08:20:29;3.70;;;1.00;;
32321;SDS011;61553;48.994;8.940;2023-07-29T08:22:55;5.18;;;1.13;;
32321;SDS011;61553;48.994;8.940;2023-07-29T08:25:20;1.90;;;1.00;;
32321;SDS011;61553;48.994;8.940;2023-07-29T08:27:46;1.95;;;1.00;;
32321;SDS011;61553;48.994;8.940;2023-07-29T08:30:12;2.50;;;1.35;;
32321;SDS011;61553;48.994;8.940;2023-07-29T08:32:37;2.28;;;1.00;;
32321;SDS011;61553;48.994;8.940;2023-07-29T08:35:03;3.47;;;1.25;;
32321;SDS011;61553;48.994;8.940;2023-07-29T08:37:29;2.92;;;1.40;;
32321;SDS011;61553;48.994;8.940;2023-07-29T08:39:56;2.88;;;1.35;;
32321;SDS011;61553;48.994;8.940;2023-07-29T08:42:21;2.40;;;1.20;;
32321;SDS011;61553;48.994;8.940;2023-07-29T08:44:54;3.30;;;1.50;;
32321;SDS011;61553;48.994;8.940;2023-07-29T08:47:21;2.50;;;1.20;;
32321;SDS011;61553;48.994;8.940;2023-07-29T08:49:46;3.03;;;1.35;;
32321;SDS011;61553;48.994;8.940;2023-07-29T08:52:14;2.20;;;1.30;;
32321;SDS011;61553;48.994;8.940;2023-07-29T08:54:40;3.60;;;1.30;;
32321;SDS011;61553;48.994;8.940;2023-07-29T08:57:06;2.20;;;1.02;;
32321;SDS011;61553;48.994;8.940;2023-07-29T08:59:32;2.92;;;0.95;;
32321;SDS011;61553;48.994;8.940;2023-07-29T09:01:58;1.65;;;1.05;;
32321;SDS011;61553;48.994;8.940;2023-07-29T09:04:24;2.85;;;1.00;;
32321;SDS011;61553;48.994;8.940;2023-07-29T09:06:50;2.10;;;1.10;;
32321;SDS011;61553;48.994;8.940;2023-07-29T09:09:16;3.20;;;1.23;;
32321;SDS011;61553;48.994;8.940;2023-07-29T09:11:43;2.00;;;1.10;;
32321;SDS011;61553;48.994;8.940;2023-07-29T09:14:09;3.08;;;1.23;;
32321;SDS011;61553;48.994;8.940;2023-07-29T09:16:35;2.80;;;1.20;;
32321;SDS011;61553;48.994;8.940;2023-07-29T09:19:02;2.88;;;1.27;;
32321;SDS011;61553;48.994;8.940;2023-07-29T09:21:31;4.65;;;1.25;;
32321;SDS011;61553;48.994;8.940;2023-07-29T09:23:57;9.63;;;1.45;;
32321;SDS011;61553;48.994;8.940;2023-07-29T09:26:29;6.28;;;1.50;;
32321;SDS011;61553;48.994;8.940;2023-07-29T09:28:57;7.28;;;1.50;;
32321;SDS011;61553;48.994;8.940;2023-07-29T09:31:24;2.10;;;1.00;;
32321;SDS011;61553;48.994;8.940;2023-07-29T09:33:57;3.72;;;1.60;;
32321;SDS011;61553;48.994;8.940;2023-07-29T09:36:24;5.72;;;1.80;;
32321;SDS011;61553;48.994;8.940;2023-07-29T09:38:54;4.93;;;1.80;;
32321;SDS011;61553;48.994;8.940;2023-07-29T09:41:27;5.47;;;1.80;;
32321;SDS011;61553;48.994;8.940;2023-07-29T09:43:56;6.43;;;2.08;;
32321;SDS011;61553;48.994;8.940;2023-07-29T09:46:24;5.75;;;1.90;;
32321;SDS011;61553;48.994;8.940;2023-07-29T09:48:53;5.93;;;1.75;;
32321;SDS011;61553;48.994;8.940;2023-07-29T09:51:22;6.57;;;1.50;;
32321;SDS011;61553;48.994;8.940;2023-07-29T09:53:50;2.83;;;1.40;;
32321;SDS011;61553;48.994;8.940;2023-07-29T09:56:23;3.85;;;1.63;;
32321;SDS011;61553;48.994;8.940;2023-07-29T09:58:51;5.00;;;1.67;;
32321;SDS011;61553;48.994;8.940;2023-07-29T10:01:17;2.22;;;1.40;;
32321;SDS011;61553;48.994;8.940;2023-07-29T10:03:44;4.35;;;1.58;;
32321;SDS011;61553;48.994;8.940;2023-07-29T10:06:10;2.95;;;1.33;;
32321;SDS011;61553;48.994;8.940;2023-07-29T10:08:36;6.82;;;1.85;;
32321;SDS011;61553;48.994;8.940;2023-07-29T10:11:05;5.18;;;1.40;;
32321;SDS011;61553;48.994;8.940;2023-07-29T10:13:32;2.25;;;1.05;;
32321;SDS011;61553;48.994;8.940;2023-07-29T10:15:59;2.67;;;1.00;;
32321;SDS011;61553;48.994;8.940;2023-07-29T10:18:27;3.70;;;1.05;;
32321;SDS011;61553;48.994;8.940;2023-07-29T10:20:54;3.40;;;1.10;;
32321;SDS011;61553;48.994;8.940;2023-07-29T10:23:22;2.92;;;1.08;;
32321;SDS011;61553;48.994;8.940;2023-07-29T10:25:54;1.98;;;0.95;;
32321;SDS011;61553;48.994;8.940;2023-07-29T10:28:20;1.00;;;0.60;;
32321;SDS011;61553;48.994;8.940;2023-07-29T10:30:51;2.97;;;0.95;;
32321;SDS011;61553;48.994;8.940;2023-07-29T10:33:17;1.27;;;0.68;;
32321;SDS011;61553;48.994;8.940;2023-07-29T10:35:42;2.75;;;1.20;;
32321;SDS011;61553;48.994;8.940;2023-07-29T10:38:08;2.38;;;0.93;;
32321;SDS011;61553;48.994;8.940;2023-07-29T10:45:51;1.92;;;0.98;;
32321;SDS011;61553;48.994;8.940;2023-07-29T10:48:59;3.20;;;1.23;;
32321;SDS011;61553;48.994;8.940;2023-07-29T10:54:12;2.67;;;1.00;;
32321;SDS011;61553;48.994;8.940;2023-07-29T10:56:42;3.05;;;1.08;;
32321;SDS011;61553;48.994;8.940;2023-07-29T11:01:38;3.20;;;0.93;;
32321;SDS011;61553;48.994;8.940;2023-07-29T11:15:01;1.90;;;0.75;;
32321;SDS011;61553;48.994;8.940;2023-07-29T11:17:34;2.33;;;0.75;;
32321;SDS011;61553;48.994;8.940;2023-07-29T11:20:00;2.35;;;1.48;;
32321;SDS011;61553;48.994;8.940;2023-07-29T11:22:28;8.20;;;1.20;;
32321;SDS011;61553;48.994;8.940;2023-07-29T11:24:54;1.65;;;0.90;;
32321;SDS011;61553;48.994;8.940;2023-07-29T11:27:19;2.83;;;1.02;;
32321;SDS011;61553;48.994;8.940;2023-07-29T11:29:46;1.75;;;0.90;;
32321;SDS011;61553;48.994;8.940;2023-07-29T11:32:12;3.22;;;1.00;;
32321;SDS011;61553;48.994;8.940;2023-07-29T11:34:38;1.08;;;0.80;;
32321;SDS011;61553;48.994;8.940;2023-07-29T11:37:09;2.38;;;1.10;;
32321;SDS011;61553;48.994;8.940;2023-07-29T11:39:39;2.70;;;1.02;;
32321;SDS011;61553;48.994;8.940;2023-07-29T11:42:06;3.15;;;1.08;;
32321;SDS011;61553;48.994;8.940;2023-07-29T11:44:32;2.30;;;0.90;;
32321;SDS011;61553;48.994;8.940;2023-07-29T11:46:57;2.22;;;1.10;;
32321;SDS011;61553;48.994;8.940;2023-07-29T11:49:23;1.77;;;0.90;;
32321;SDS011;61553;48.994;8.940;2023-07-29T11:51:48;1.60;;;0.95;;
32321;SDS011;61553;48.994;8.940;2023-07-29T11:54:14;2.97;;;1.15;;
32321;SDS011;61553;48.994;8.940;2023-07-29T11:56:40;1.70;;;1.00;;
32321;SDS011;61553;48.994;8.940;2023-07-29T11:59:06;4.00;;;1.20;;
32321;SDS011;61553;48.994;8.940;2023-07-29T12:01:32;2.72;;;1.15;;
32321;SDS011;61553;48.994;8.940;2023-07-29T12:03:58;2.20;;;1.08;;
32321;SDS011;61553;48.994;8.940;2023-07-29T12:06:25;2.17;;;1.17;;
32321;SDS011;61553;48.994;8.940;2023-07-29T12:08:51;5.57;;;1.17;;
32321;SDS011;61553;48.994;8.940;2023-07-29T12:11:17;1.60;;;0.93;;
32321;SDS011;61553;48.994;8.940;2023-07-29T12:13:43;2.65;;;1.17;;
32321;SDS011;61553;48.994;8.940;2023-07-29T12:16:08;2.65;;;1.30;;
32321;SDS011;61553;48.994;8.940;2023-07-29T12:18:35;2.45;;;1.23;;
32321;SDS011;61553;48.994;8.940;2023-07-29T12:21:01;2.83;;;1.30;;
32321;SDS011;61553;48.994;8.940;2023-07-29T12:23:28;2.33;;;1.00;;
32321;SDS011;61553;48.994;8.940;2023-07-29T12:25:57;2.97;;;1.00;;
32321;SDS011;61553;48.994;8.940;2023-07-29T12:28:24;2.10;;;1.20;;
32321;SDS011;61553;48.994;8.940;2023-07-29T12:30:53;2.35;;;1.30;;
32321;SDS011;61553;48.994;8.940;2023-07-29T12:33:33;2.67;;;1.38;;
32321;SDS011;61553;48.994;8.940;2023-07-29T12:36:01;4.63;;;1.20;;
32321;SDS011;61553;48.994;8.940;2023-07-29T12:38:28;2.30;;;1.33;;
32321;SDS011;61553;48.994;8.940;2023-07-29T12:40:54;4.93;;;1.40;;
32321;SDS011;61553;48.994;8.940;2023-07-29T12:43:21;2.97;;;1.60;;
32321;SDS011;61553;48.994;8.940;2023-07-29T12:45:48;2.42;;;1.38;;
32321;SDS011;61553;48.994;8.940;2023-07-29T12:48:14;2.38;;;1.20;;
32321;SDS011;61553;48.994;8.940;2023-07-29T12:50:40;4.28;;;1.40;;
32321;SDS011;61553;48.994;8.940;2023-07-29T12:53:06;3.20;;;1.23;;
32321;SDS011;61553;48.994;8.940;2023-07-29T12:55:33;3.03;;;1.35;;
32321;SDS011;61553;48.994;8.940;2023-07-29T12:57:59;2.50;;;1.17;;
32321;SDS011;61553;48.994;8.940;2023-07-29T13:00:25;3.00;;;1.35;;
32321;SDS011;61553;48.994;8.940;2023-07-29T13:02:51;3.05;;;1.20;;
32321;SDS011;61553;48.994;8.940;2023-07-29T13:05:17;4.43;;;1.52;;
32321;SDS011;61553;48.994;8.940;2023-07-29T13:07:43;3.65;;;1.40;;
32321;SDS011;61553;48.994;8.940;2023-07-29T13:10:09;3.85;;;1.38;;
32321;SDS011;61553;48.994;8.940;2023-07-29T13:12:35;2.90;;;1.45;;
32321;SDS011;61553;48.994;8.940;2023-07-29T13:15:01;3.38;;;1.40;;
32321;SDS011;61553;48.994;8.940;2023-07-29T13:17:27;2.78;;;1.65;;
32321;SDS011;61553;48.994;8.940;2023-07-29T13:19:53;2.50;;;1.45;;
32321;SDS011;61553;48.994;8.940;2023-07-29T13:22:19;2.70;;;1.33;;
32321;SDS011;61553;48.994;8.940;2023-07-29T13:24:45;2.17;;;1.20;;
32321;SDS011;61553;48.994;8.940;2023-07-29T13:27:11;2.90;;;1.30;;
32321;SDS011;61553;48.994;8.940;2023-07-29T13:29:37;4.57;;;1.30;;
32321;SDS011;61553;48.994;8.940;2023-07-29T13:32:03;3.15;;;1.50;;
32321;SDS011;61553;48.994;8.940;2023-07-29T13:34:28;4.57;;;1.65;;
32321;SDS011;61553;48.994;8.940;2023-07-29T13:36:54;2.65;;;1.23;;
32321;SDS011;61553;48.994;8.940;2023-07-29T13:39:20;2.47;;;1.30;;
32321;SDS011;61553;48.994;8.940;2023-07-29T13:41:46;5.95;;;1.60;;
32321;SDS011;61553;48.994;8.940;2023-07-29T13:44:12;2.85;;;1.38;;
32321;SDS011;61553;48.994;8.940;2023-07-29T13:46:37;5.68;;;1.60;;
32321;SDS011;61553;48.994;8.940;2023-07-29T13:49:03;2.58;;;1.40;;
32321;SDS011;61553;48.994;8.940;2023-07-29T13:51:29;2.15;;;1.20;;
32321;SDS011;61553;48.994;8.940;2023-07-29T13:53:54;3.85;;;1.55;;
32321;SDS011;61553;48.994;8.940;2023-07-29T13:56:21;3.25;;;1.42;;
32321;SDS011;61553;48.994;8.940;2023-07-29T13:58:47;2.55;;;1.40;;
32321;SDS011;61553;48.994;8.940;2023-07-29T14:01:13;3.55;;;1.45;;
32321;SDS011;61553;48.994;8.940;2023-07-29T14:03:38;2.67;;;1.23;;
32321;SDS011;61553;48.994;8.940;2023-07-29T14:06:04;4.75;;;1.40;;
32321;SDS011;61553;48.994;8.940;2023-07-29T14:08:29;2.53;;;1.40;;
32321;SDS011;61553;48.994;8.940;2023-07-29T14:10:55;2.33;;;1.30;;
32321;SDS011;61553;48.994;8.940;2023-07-29T14:13:21;4.05;;;1.73;;
32321;SDS011;61553;48.994;8.940;2023-07-29T14:15:46;2.65;;;1.60;;
32321;SDS011;61553;48.994;8.940;2023-07-29T14:18:12;4.68;;;1.60;;
32321;SDS011;61553;48.994;8.940;2023-07-29T14:20:38;3.05;;;1.58;;
32321;SDS011;61553;48.994;8.940;2023-07-29T14:23:04;2.63;;;1.50;;
32321;SDS011;61553;48.994;8.940;2023-07-29T14:25:29;2.70;;;1.30;;
32321;SDS011;61553;48.994;8.940;2023-07-29T14:27:55;3.05;;;1.25;;
32321;SDS011;61553;48.994;8.940;2023-07-29T14:30:21;2.00;;;1.27;;
32321;SDS011;61553;48.994;8.940;2023-07-29T14:32:46;2.92;;;1.30;;
32321;SDS011;61553;48.994;8.940;2023-07-29T14:35:12;3.35;;;1.80;;
32321;SDS011;61553;48.994;8.940;2023-07-29T14:37:37;3.20;;;1.58;;
32321;SDS011;61553;48.994;8.940;2023-07-29T14:40:03;2.92;;;1.40;;
32321;SDS011;61553;48.994;8.940;2023-07-29T14:42:30;3.38;;;1.60;;
32321;SDS011;61553;48.994;8.940;2023-07-29T14:44:55;5.72;;;1.50;;
32321;SDS011;61553;48.994;8.940;2023-07-29T14:47:21;2.40;;;1.48;;
32321;SDS011;61553;48.994;8.940;2023-07-29T14:49:47;2.95;;;1.50;;
32321;SDS011;61553;48.994;8.940;2023-07-29T14:52:12;2.40;;;1.30;;
32321;SDS011;61553;48.994;8.940;2023-07-29T14:54:38;2.80;;;1.10;;
32321;SDS011;61553;48.994;8.940;2023-07-29T14:57:05;6.15;;;2.20;;
32321;SDS011;61553;48.994;8.940;2023-07-29T14:59:31;3.40;;;1.48;;
32321;SDS011;61553;48.994;8.940;2023-07-29T15:01:57;5.97;;;1.50;;
32321;SDS011;61553;48.994;8.940;2023-07-29T15:04:23;2.72;;;1.60;;
32321;SDS011;61553;48.994;8.940;2023-07-29T15:06:49;5.22;;;2.00;;